Time;durP1;ratioP1;P1;durP2;ratioP2;P2;SDS_P1;SDS_P2;PMS_P1;PMS_P2;Temp;Humidity;BMP_temperature;BMP_pressure;BME280_temperature;BME280_humidity;BME280_pressure;Samples;Min_cycle;Max_cycle;Signal;HPM_P1;HPM_P2
2021/06/04 00:01:32;;;;;;;8.95;4.05;;;;;;;14.91;58.61;100616.69;5064207;28;20052;-57
2021/06/04 00:03:59;;;;;;;5.60;3.70;;;;;;;14.90;58.31;100622.78;5064133;28;20329;-57
2021/06/04 00:06:25;;;;;;;7.25;4.13;;;;;;;14.91;58.14;100625.38;5064098;28;20036;-57
2021/06/04 00:08:51;;;;;;;6.07;3.90;;;;;;;14.86;58.40;100627.22;5063712;28;20043;-58
2021/06/04 00:11:24;;;;;;;7.95;3.85;;;;;;;14.78;58.19;100626.56;5063904;28;20349;-58
2021/06/04 00:13:53;;;;;;;6.38;4.00;;;;;;;14.44;58.43;100578.63;5064131;28;20345;-58
2021/06/04 00:16:26;;;;;;;6.72;4.00;;;;;;;14.47;58.04;100580.31;5062632;28;20043;-59
2021/06/04 00:18:53;;;;;;;5.00;3.60;;;;;;;14.71;58.08;100624.97;5063608;28;20119;-59
2021/06/04 00:21:26;;;;;;;4.78;3.60;;;;;;;14.73;58.00;100631.03;5063504;28;20056;-59
2021/06/04 00:23:53;;;;;;;4.72;3.90;;;;;;;14.63;59.04;100615.56;5063569;28;20032;-59
2021/06/04 00:26:19;;;;;;;10.13;3.83;;;;;;;14.55;59.27;100620.09;5063344;28;20078;-59
2021/06/04 00:28:45;;;;;;;6.55;3.85;;;;;;;14.58;58.64;100620.03;5063894;28;20030;-59
2021/06/04 00:31:11;;;;;;;8.15;4.32;;;;;;;14.51;58.87;100626.28;5063691;28;20321;-59
2021/06/04 00:33:37;;;;;;;5.90;4.05;;;;;;;14.55;58.93;100622.69;5062902;28;20020;-58
2021/06/04 00:36:05;;;;;;;5.38;3.38;;;;;;;14.17;59.40;100579.25;5063669;28;20217;-58
2021/06/04 00:38:31;;;;;;;7.18;3.90;;;;;;;14.39;59.20;100627.38;5063246;28;20037;-59
2021/06/04 00:41:01;;;;;;;5.78;3.88;;;;;;;14.11;59.19;100562.00;5062390;28;20248;-59
2021/06/04 00:43:27;;;;;;;6.10;3.70;;;;;;;14.30;59.14;100631.03;5063243;28;20028;-59
2021/06/04 00:45:55;;;;;;;4.63;3.75;;;;;;;13.98;59.49;100582.25;5063069;28;20209;-60
2021/06/04 00:48:22;;;;;;;10.23;3.85;;;;;;;14.22;59.64;100640.75;5063455;28;20020;-59
2021/06/04 00:50:50;;;;;;;7.30;4.30;;;;;;;14.20;59.60;100636.50;5062761;28;20047;-59
2021/06/04 00:53:17;;;;;;;8.30;4.38;;;;;;;13.97;59.26;100641.28;5062975;28;20035;-59
2021/06/04 00:55:43;;;;;;;6.57;3.75;;;;;;;13.97;59.43;100645.66;5063195;28;20066;-59
2021/06/04 00:58:13;;;;;;;7.50;3.55;;;;;;;13.66;59.92;100591.56;5063209;28;20035;-59
2021/06/04 01:00:42;;;;;;;4.28;3.30;;;;;;;13.66;59.63;100594.16;5063147;28;20051;-59
2021/06/04 01:03:10;;;;;;;6.95;3.90;;;;;;;14.03;59.41;100655.94;5062761;28;20017;-59
2021/06/04 01:05:38;;;;;;;5.55;3.58;;;;;;;13.94;59.67;100651.75;5063279;28;20028;-60
2021/06/04 01:08:13;;;;;;;5.47;3.85;;;;;;;13.88;60.11;100659.72;5063225;28;20025;-60
2021/06/04 01:11:15;;;;;;;6.25;3.53;;;;;;;13.73;60.46;100657.38;5062902;28;20250;-59
2021/06/04 01:14:18;;;;;;;6.97;3.42;;;;;;;13.77;59.97;100664.25;5062910;28;20093;-59
2021/06/04 01:17:03;;;;;;;5.15;3.38;;;;;;;13.47;59.71;100627.50;5055571;28;20024;-60
2021/06/04 01:19:42;;;;;;;6.93;3.42;;;;;;;13.61;60.78;100664.53;5062720;28;20095;-58
2021/06/04 01:22:34;;;;;;;10.35;3.17;;;;;;;13.48;60.24;100673.44;5063046;28;20213;-58
2021/06/04 01:25:29;;;;;;;5.38;3.17;;;;;;;13.09;61.01;100597.78;5061778;28;20376;-59
2021/06/04 01:27:57;;;;;;;6.88;2.88;;;;;;;13.05;60.80;100609.09;5064043;28;20040;-58
2021/06/04 01:30:32;;;;;;;5.78;3.28;;;;;;;13.14;60.88;100614.16;5066996;28;20336;-58
2021/06/04 01:33:02;;;;;;;5.60;3.35;;;;;;;13.51;61.22;100673.41;5067082;28;20036;-59
2021/06/04 01:35:37;;;;;;;6.05;3.05;;;;;;;13.52;61.11;100664.69;5067007;28;20321;-60
2021/06/04 01:38:04;;;;;;;5.03;3.25;;;;;;;13.45;60.45;100671.75;5066482;28;20021;-60
2021/06/04 01:40:59;;;;;;;4.95;3.03;;;;;;;13.49;60.73;100676.91;5066706;28;20025;-60
2021/06/04 01:43:30;;;;;;;5.22;3.03;;;;;;;13.50;59.91;100679.47;5065722;28;20037;-59
2021/06/04 01:46:03;;;;;;;7.50;3.03;;;;;;;13.31;61.18;100686.72;5066447;28;20024;-58
2021/06/04 01:48:34;;;;;;;6.50;3.33;;;;;;;13.50;60.06;100679.47;5066777;28;20029;-59
2021/06/04 01:51:20;;;;;;;5.60;2.77;;;;;;;13.16;60.71;100620.19;5066678;28;20040;-59
2021/06/04 01:53:54;;;;;;;5.00;3.17;;;;;;;13.21;60.12;100631.38;5067115;28;20410;-60
2021/06/04 01:56:32;;;;;;;6.03;3.00;;;;;;;13.56;60.47;100676.75;5066538;28;20253;-60
2021/06/04 01:59:04;;;;;;;8.35;3.28;;;;;;;13.54;59.67;100681.16;5066673;28;20021;-59
2021/06/04 02:01:40;;;;;;;5.75;3.33;;;;;;;13.59;60.15;100666.28;5066313;28;20037;-59
2021/06/04 02:04:09;;;;;;;5.20;3.20;;;;;;;13.74;59.52;100675.59;5066336;28;20048;-59
2021/06/04 02:06:35;;;;;;;7.03;3.17;;;;;;;13.81;59.27;100666.78;5066388;28;20256;-59
2021/06/04 02:09:04;;;;;;;5.35;3.40;;;;;;;13.96;59.88;100681.22;5066394;28;20084;-60
2021/06/04 02:11:32;;;;;;;4.13;3.30;;;;;;;13.87;59.57;100678.81;5066179;28;20037;-59
2021/06/04 02:14:01;;;;;;;5.35;2.90;;;;;;;14.11;59.57;100681.84;5066121;28;20194;-59
2021/06/04 02:16:40;;;;;;;4.55;3.30;;;;;;;13.65;58.88;100628.88;5065823;28;20297;-60
2021/06/04 02:19:23;;;;;;;6.63;3.78;;;;;;;13.93;59.73;100678.69;5066190;28;20028;-59
2021/06/04 02:22:09;;;;;;;4.80;3.30;;;;;;;13.89;59.65;100684.84;5066268;28;20099;-59
2021/06/04 02:24:53;;;;;;;3.35;3.03;;;;;;;13.94;59.93;100684.78;5065857;28;20326;-59
2021/06/04 02:27:29;;;;;;;8.43;3.08;;;;;;;13.56;57.95;100623.88;5065790;28;20035;-58
2021/06/04 02:30:00;;;;;;;7.70;3.35;;;;;;;13.06;59.28;100527.63;5066038;28;20036;-60
2021/06/04 02:32:33;;;;;;;9.30;3.33;;;;;;;13.84;58.56;100621.59;5065722;28;20027;-60
2021/06/04 02:35:07;;;;;;;7.80;3.75;;;;;;;14.30;59.06;100683.16;5065921;28;20021;-61
2021/06/04 02:37:40;;;;;;;7.72;3.30;;;;;;;14.35;58.29;100692.63;5065217;28;20032;-60
2021/06/04 02:40:20;;;;;;;5.55;3.08;;;;;;;14.08;57.76;100616.75;5064717;28;20017;-60
2021/06/04 02:42:51;;;;;;;5.65;2.70;;;;;;;14.39;58.00;100682.09;5065793;28;20052;-60
2021/06/04 02:45:19;;;;;;;4.50;3.03;;;;;;;14.59;57.71;100681.72;5065669;28;20029;-60
2021/06/04 02:47:50;;;;;;;5.00;2.88;;;;;;;14.57;57.71;100661.78;5065633;28;20025;-60
2021/06/04 02:50:21;;;;;;;4.72;2.95;;;;;;;14.81;56.70;100686.47;5064827;28;20025;-60
2021/06/04 02:52:48;;;;;;;4.00;3.10;;;;;;;14.77;58.28;100671.78;5065556;28;20115;-59
2021/06/04 02:55:21;;;;;;;4.10;2.85;;;;;;;14.92;57.22;100684.47;5065496;28;20029;-59
2021/06/04 02:57:47;;;;;;;3.67;2.97;;;;;;;14.72;57.30;100686.66;5065521;28;20036;-59
2021/06/04 03:00:38;;;;;;;6.18;3.08;;;;;;;14.80;56.74;100672.56;5065263;28;20225;-62
2021/06/04 03:03:06;;;;;;;5.00;2.40;;;;;;;14.69;56.81;100677.16;5065317;28;20032;-59
2021/06/04 03:05:34;;;;;;;4.70;2.80;;;;;;;14.32;57.59;100637.09;5065277;28;20254;-59
2021/06/04 03:08:01;;;;;;;9.77;3.22;;;;;;;14.72;57.92;100677.09;5065073;28;20036;-61
2021/06/04 03:10:35;;;;;;;5.90;2.67;;;;;;;14.87;57.20;100696.75;5065257;28;20024;-60
2021/06/04 03:13:03;;;;;;;4.35;2.60;;;;;;;14.78;56.09;100643.06;5065112;28;20032;-60
2021/06/04 03:15:33;;;;;;;4.18;2.58;;;;;;;14.60;56.08;100640.84;5065046;28;20028;-59
2021/06/04 03:17:59;;;;;;;4.03;3.05;;;;;;;15.22;56.77;100689.84;5064988;28;20048;-59
2021/06/04 03:20:35;;;;;;;5.68;2.60;;;;;;;15.02;57.12;100632.91;5064863;28;20056;-59
2021/06/04 03:23:02;;;;;;;3.22;2.22;;;;;;;15.48;57.12;100690.97;5064948;28;20025;-60
2021/06/04 03:25:32;;;;;;;3.63;2.85;;;;;;;15.13;57.96;100649.16;5064887;28;20028;-60
2021/06/04 03:27:58;;;;;;;4.78;2.88;;;;;;;15.60;56.28;100689.78;5065045;28;20020;-59
2021/06/04 03:30:31;;;;;;;4.63;2.40;;;;;;;15.33;57.34;100643.47;5064786;28;20029;-60
2021/06/04 03:32:57;;;;;;;3.97;2.33;;;;;;;15.83;56.14;100697.03;5064723;28;20039;-60
2021/06/04 03:35:24;;;;;;;6.53;2.90;;;;;;;15.88;57.06;100697.78;5064786;28;20318;-60
2021/06/04 03:37:50;;;;;;;11.88;3.17;;;;;;;16.30;54.35;100692.22;5064496;28;20037;-59
2021/06/04 03:40:19;;;;;;;8.23;2.80;;;;;;;16.53;54.59;100686.34;5064165;28;20036;-59
2021/06/04 03:42:46;;;;;;;7.75;2.90;;;;;;;16.45;53.92;100703.16;5064528;28;20025;-59
2021/06/04 03:45:16;;;;;;;5.93;2.97;;;;;;;16.33;54.29;100683.44;5064512;28;20089;-59
2021/06/04 03:47:42;;;;;;;5.93;2.50;;;;;;;16.33;54.18;100692.16;5064520;28;20048;-60
2021/06/04 03:50:10;;;;;;;10.43;2.53;;;;;;;16.24;54.49;100689.78;5063237;28;20100;-60
2021/06/04 03:52:36;;;;;;;6.40;2.97;;;;;;;16.40;53.87;100692.81;5064191;28;20036;-59
2021/06/04 03:55:04;;;;;;;5.45;3.30;;;;;;;16.42;54.17;100711.06;5064511;28;20062;-59
2021/06/04 03:57:33;;;;;;;6.32;3.22;;;;;;;16.38;54.40;100692.88;5063984;28;20036;-60
2021/06/04 03:59:59;;;;;;;6.18;3.55;;;;;;;16.31;54.26;100680.88;5063930;28;20029;-59
2021/06/04 04:02:27;;;;;;;6.28;3.45;;;;;;;16.43;54.90;100678.81;5063906;28;20029;-59
2021/06/04 04:04:58;;;;;;;7.90;4.07;;;;;;;16.51;55.06;100679.44;5063837;28;20017;-59
2021/06/04 04:07:28;;;;;;;6.80;3.22;;;;;;;16.38;53.51;100656.25;5061784;28;20069;-58
2021/06/04 04:09:54;;;;;;;5.10;3.22;;;;;;;16.55;53.59;100676.66;5063600;28;20031;-58
2021/06/04 04:12:20;;;;;;;6.85;3.28;;;;;;;16.54;52.80;100676.72;5063684;28;20024;-59
2021/06/04 04:14:45;;;;;;;6.45;3.20;;;;;;;16.65;54.32;100687.72;5063833;28;20017;-59
2021/06/04 04:17:12;;;;;;;7.30;3.22;;;;;;;16.78;53.57;100676.88;5063058;28;20040;-59
2021/06/04 04:19:37;;;;;;;7.65;3.10;;;;;;;16.84;52.79;100674.06;5063429;28;20029;-59
2021/06/04 04:22:04;;;;;;;7.40;3.03;;;;;;;16.89;52.55;100674.81;5063954;28;20060;-58
2021/06/04 04:24:33;;;;;;;4.88;2.80;;;;;;;16.59;52.31;100611.19;5063555;28;20055;-59
2021/06/04 04:26:59;;;;;;;4.43;2.55;;;;;;;17.04;52.07;100676.91;5063736;28;20020;-59
2021/06/04 04:29:25;;;;;;;3.67;2.60;;;;;;;16.92;52.89;100672.09;5063624;28;20212;-60
2021/06/04 04:31:54;;;;;;;8.50;2.83;;;;;;;16.74;52.40;100618.56;5063628;28;20052;-60
2021/06/04 04:34:22;;;;;;;6.10;3.10;;;;;;;17.07;52.83;100663.75;5063442;28;20025;-59
2021/06/04 04:36:50;;;;;;;8.75;2.92;;;;;;;17.20;53.13;100668.56;5063454;28;20059;-59
2021/06/04 04:39:20;;;;;;;6.25;3.13;;;;;;;17.24;52.87;100659.72;5063013;28;20025;-60
2021/06/04 04:41:49;;;;;;;3.60;2.30;;;;;;;17.45;51.63;100667.78;5063178;28;20333;-59
2021/06/04 04:44:17;;;;;;;3.83;2.40;;;;;;;17.38;52.49;100654.88;5061567;28;20063;-59
2021/06/04 04:46:43;;;;;;;4.03;2.40;;;;;;;17.56;51.18;100668.25;5063376;28;20036;-59
2021/06/04 04:49:09;;;;;;;4.07;2.53;;;;;;;17.50;50.29;100665.84;5063159;28;20071;-62
2021/06/04 04:51:36;;;;;;;6.43;2.70;;;;;;;17.28;50.85;100621.22;5063195;28;20029;-60
2021/06/04 04:54:03;;;;;;;2.75;2.53;;;;;;;17.67;50.89;100660.88;5063024;28;20052;-60
2021/06/04 04:56:29;;;;;;;5.00;2.40;;;;;;;17.73;51.15;100660.66;5062857;28;20179;-60
2021/06/04 04:58:55;;;;;;;6.25;2.60;;;;;;;17.70;50.13;100660.78;5063046;28;20021;-60
2021/06/04 05:01:21;;;;;;;6.25;2.30;;;;;;;17.88;49.73;100658.41;5063009;28;20024;-61
2021/06/04 05:03:48;;;;;;;7.93;2.47;;;;;;;17.98;49.66;100665.03;5063119;28;20021;-59
2021/06/04 05:06:14;;;;;;;3.75;2.38;;;;;;;17.98;49.46;100661.56;5063029;28;20021;-58
2021/06/04 05:08:40;;;;;;;7.57;2.80;;;;;;;18.27;48.38;100656.09;5062730;28;20391;-60
2021/06/04 05:11:07;;;;;;;5.30;2.40;;;;;;;18.37;47.85;100651.38;5062726;28;20096;-61
2021/06/04 05:13:35;;;;;;;4.90;2.40;;;;;;;18.38;48.41;100637.31;5062600;28;20111;-60
2021/06/04 05:16:04;;;;;;;6.93;2.15;;;;;;;18.42;48.68;100659.91;5062758;28;20028;-59
2021/06/04 05:18:32;;;;;;;4.15;2.08;;;;;;;18.80;47.96;100652.31;5062931;28;20120;-60
2021/06/04 05:20:58;;;;;;;4.90;2.00;;;;;;;19.14;47.46;100660.63;5062751;28;20039;-59
2021/06/04 05:23:24;;;;;;;4.43;2.40;;;;;;;19.37;46.84;100656.16;5061655;28;20032;-59
2021/06/04 05:25:51;;;;;;;4.97;2.63;;;;;;;19.10;44.87;100659.03;5062891;28;20044;-59
2021/06/04 05:28:21;;;;;;;11.93;8.07;;;;;;;18.71;45.11;100597.56;5062533;28;20029;-60
2021/06/04 05:30:49;;;;;;;4.78;2.80;;;;;;;18.99;45.48;100651.59;5062665;28;20031;-61
2021/06/04 05:33:19;;;;;;;7.82;2.78;;;;;;;18.67;44.46;100642.34;5062712;28;20032;-61
2021/06/04 05:35:45;;;;;;;4.63;2.53;;;;;;;18.93;42.50;100659.72;5062491;28;20032;-61
2021/06/04 05:38:11;;;;;;;5.55;2.70;;;;;;;18.38;43.78;100655.69;5062166;28;20028;-60
2021/06/04 05:40:41;;;;;;;5.43;2.28;;;;;;;18.68;44.13;100665.91;5054442;28;20025;-58
2021/06/04 05:43:10;;;;;;;4.22;2.63;;;;;;;18.26;43.70;100601.94;5062465;28;20025;-60
2021/06/04 05:45:38;;;;;;;6.57;2.58;;;;;;;18.69;43.56;100657.13;5062699;28;20024;-60
2021/06/04 05:48:05;;;;;;;6.65;3.13;;;;;;;18.88;44.79;100651.16;5062706;28;20028;-60
2021/06/04 05:50:36;;;;;;;3.90;2.40;;;;;;;18.79;43.59;100603.34;5061386;28;20044;-60
2021/06/04 05:53:03;;;;;;;3.90;2.47;;;;;;;19.18;43.88;100650.81;5062616;28;20051;-60
2021/06/04 05:55:31;;;;;;;3.72;2.20;;;;;;;19.34;43.60;100649.28;5061318;28;20095;-59
2021/06/04 05:57:57;;;;;;;2.92;2.53;;;;;;;18.90;41.85;100652.81;5062464;28;20071;-59
2021/06/04 06:00:37;;;;;;;3.20;2.33;;;;;;;18.97;41.91;100616.69;5062343;28;20127;-57
2021/06/04 06:03:04;;;;;;;8.38;3.00;;;;;;;19.05;43.05;100635.56;5062606;28;20033;-59
2021/06/04 06:05:31;;;;;;;9.98;3.03;;;;;;;19.31;43.95;100604.72;5062547;28;20028;-58
2021/06/04 06:07:57;;;;;;;3.85;2.47;;;;;;;19.57;42.64;100657.94;5062346;28;20025;-59
2021/06/04 06:10:22;;;;;;;5.30;2.70;;;;;;;19.22;41.74;100648.00;5062463;28;20035;-59
2021/06/04 06:12:49;;;;;;;5.38;3.00;;;;;;;19.58;41.98;100646.50;5062411;28;20025;-60
2021/06/04 06:15:16;;;;;;;7.38;2.70;;;;;;;19.78;42.19;100648.25;5066265;28;20021;-60
2021/06/04 06:17:41;;;;;;;3.90;2.42;;;;;;;19.33;41.80;100650.19;5066182;28;20368;-60
2021/06/04 06:20:10;;;;;;;6.85;2.50;;;;;;;19.22;41.80;100599.88;5065909;28;20089;-60
2021/06/04 06:22:35;;;;;;;4.90;2.67;;;;;;;19.30;40.80;100648.53;5065017;28;20035;-60
2021/06/04 06:25:04;;;;;;;4.03;2.33;;;;;;;19.44;41.83;100642.69;5066122;28;20025;-61
2021/06/04 06:27:30;;;;;;;7.13;2.58;;;;;;;19.57;41.28;100650.91;5066076;28;20044;-60
2021/06/04 06:29:56;;;;;;;5.47;2.58;;;;;;;19.54;41.73;100644.91;5065640;28;20036;-60
2021/06/04 06:32:21;;;;;;;4.72;2.40;;;;;;;19.20;40.53;100656.88;5065700;28;20032;-59
2021/06/04 06:34:48;;;;;;;5.65;2.60;;;;;;;19.35;41.13;100647.50;5065654;28;20025;-59
2021/06/04 06:37:15;;;;;;;5.25;2.60;;;;;;;19.46;41.47;100634.75;5065404;28;20062;-59
2021/06/04 06:39:41;;;;;;;6.03;2.50;;;;;;;18.93;42.13;100643.97;5064801;28;20084;-59
2021/06/04 06:42:08;;;;;;;5.65;2.47;;;;;;;18.89;41.43;100647.63;5065626;28;20039;-59
2021/06/04 06:44:34;;;;;;;5.97;2.50;;;;;;;19.20;41.38;100635.88;5065640;28;20056;-59
2021/06/04 06:47:00;;;;;;;6.30;2.80;;;;;;;19.33;41.29;100641.47;5065561;28;20029;-59
2021/06/04 06:49:27;;;;;;;6.63;2.60;;;;;;;19.18;41.19;100638.53;5065560;28;20333;-59
2021/06/04 06:51:54;;;;;;;3.25;2.95;;;;;;;19.23;41.32;100651.50;5065544;28;20032;-59
2021/06/04 06:54:25;;;;;;;3.60;2.58;;;;;;;19.28;40.67;100649.50;5065296;28;20032;-58
2021/06/04 06:56:53;;;;;;;7.72;3.03;;;;;;;18.63;41.36;100613.59;5065531;28;20024;-59
2021/06/04 06:59:21;;;;;;;3.17;2.67;;;;;;;19.18;41.50;100658.72;5065386;28;20100;-60
2021/06/04 07:01:47;;;;;;;5.25;2.40;;;;;;;19.51;41.32;100645.06;5065399;28;20031;-60
2021/06/04 07:04:13;;;;;;;3.83;2.70;;;;;;;19.78;40.41;100653.50;5065305;28;20021;-60
2021/06/04 07:06:41;;;;;;;2.70;2.50;;;;;;;19.59;38.85;100606.16;5065338;28;20021;-61
2021/06/04 07:09:09;;;;;;;4.15;3.15;;;;;;;20.01;40.05;100644.66;5065133;28;20048;-60
2021/06/04 07:11:38;;;;;;;6.53;2.72;;;;;;;19.37;39.84;100603.59;5064676;28;20033;-60
2021/06/04 07:14:06;;;;;;;3.13;2.40;;;;;;;19.59;39.86;100587.78;5064911;28;20217;-59
2021/06/04 07:16:32;;;;;;;7.05;2.70;;;;;;;19.72;39.92;100659.88;5064787;28;20060;-60
2021/06/04 07:18:58;;;;;;;3.15;2.85;;;;;;;19.58;40.92;100647.38;5064563;28;20222;-59
2021/06/04 07:21:26;;;;;;;2.67;2.33;;;;;;;20.03;40.73;100639.31;5064572;28;20217;-59
2021/06/04 07:23:53;;;;;;;6.13;2.80;;;;;;;19.97;39.72;100587.84;5064636;28;20100;-60
2021/06/04 07:26:20;;;;;;;4.82;2.45;;;;;;;20.23;40.01;100638.41;5064462;28;20044;-57
2021/06/04 07:28:48;;;;;;;5.53;2.50;;;;;;;20.41;40.33;100641.91;5064347;28;20044;-59
2021/06/04 07:31:14;;;;;;;7.53;2.55;;;;;;;20.30;41.01;100639.81;5064374;28;20025;-58
2021/06/04 07:33:42;;;;;;;5.63;2.65;;;;;;;20.33;41.16;100640.50;5064694;28;20032;-59
2021/06/04 07:36:12;;;;;;;4.55;2.30;;;;;;;20.07;40.65;100596.16;5064414;28;20086;-58
2021/06/04 07:38:38;;;;;;;4.60;2.50;;;;;;;20.30;41.06;100639.81;5063443;28;20075;-58
2021/06/04 07:41:06;;;;;;;5.75;2.42;;;;;;;20.44;41.48;100624.22;5064443;28;20028;-57
2021/06/04 07:43:35;;;;;;;5.55;2.40;;;;;;;20.37;39.98;100640.38;5064393;28;20032;-58
2021/06/04 07:46:02;;;;;;;9.95;2.50;;;;;;;20.08;40.38;100635.53;5064422;28;20048;-59
2021/06/04 07:48:28;;;;;;;7.78;2.40;;;;;;;20.26;40.83;100625.94;5064154;28;20296;-59
2021/06/04 07:50:56;;;;;;;6.45;2.25;;;;;;;20.33;40.46;100637.03;5064304;28;20135;-59
2021/06/04 07:53:25;;;;;;;8.52;2.20;;;;;;;20.22;42.23;100560.38;5064152;28;20267;-59
2021/06/04 07:55:51;;;;;;;4.82;2.00;;;;;;;20.38;40.93;100615.75;5063305;28;20029;-58
2021/06/04 07:58:17;;;;;;;8.40;2.35;;;;;;;20.30;40.67;100616.13;5064250;28;20066;-59
2021/06/04 08:00:43;;;;;;;7.10;2.10;;;;;;;20.60;41.00;100623.50;5063798;28;20098;-59
2021/06/04 08:03:11;;;;;;;6.68;2.15;;;;;;;20.38;39.73;100610.50;5064288;28;20017;-57
2021/06/04 08:05:37;;;;;;;5.28;1.95;;;;;;;20.54;39.62;100611.47;5064030;28;20259;-58
2021/06/04 08:08:06;;;;;;;4.97;1.83;;;;;;;20.30;40.61;100593.28;5064051;28;20067;-58
2021/06/04 08:10:33;;;;;;;5.55;1.63;;;;;;;20.66;39.68;100610.91;5063921;28;20036;-59
2021/06/04 08:13:00;;;;;;;3.70;1.58;;;;;;;20.30;39.58;100605.59;5063974;28;20066;-60
2021/06/04 08:15:39;;;;;;;6.60;1.92;;;;;;;20.71;38.57;100617.72;5063857;28;20021;-59
2021/06/04 08:18:06;;;;;;;2.47;1.70;;;;;;;20.80;39.10;100601.50;5063587;28;20040;-59
2021/06/04 08:20:37;;;;;;;3.85;1.73;;;;;;;20.40;39.30;100604.25;5063486;28;20385;-59
2021/06/04 08:23:17;;;;;;;4.57;1.90;;;;;;;20.29;39.13;100596.84;5063843;28;20071;-59
2021/06/04 08:25:47;;;;;;;2.67;1.48;;;;;;;20.45;38.86;100568.03;5062792;28;20024;-59
2021/06/04 08:28:14;;;;;;;4.15;1.83;;;;;;;20.30;39.36;100585.41;5063469;28;20016;-58
2021/06/04 08:30:40;;;;;;;5.05;1.42;;;;;;;20.29;38.02;100588.94;5062243;28;20302;-58
2021/06/04 08:33:07;;;;;;;7.78;1.40;;;;;;;20.32;37.91;100582.69;5063644;28;20025;-60
2021/06/04 08:35:33;;;;;;;6.72;1.60;;;;;;;20.56;38.46;100578.03;5063227;28;20025;-59
2021/06/04 08:38:00;;;;;;;5.05;1.40;;;;;;;20.41;38.70;100545.44;5062850;28;20029;-60
2021/06/04 08:40:30;;;;;;;7.00;1.48;;;;;;;20.38;38.99;100539.44;5062585;28;20020;-61
2021/06/04 08:43:08;;;;;;;2.97;1.58;;;;;;;20.51;37.98;100587.94;5063174;28;20025;-61
2021/06/04 08:45:42;;;;;;;4.57;1.80;;;;;;;20.28;37.53;100536.41;4995155;28;20060;-60
2021/06/04 08:48:08;;;;;;;2.58;1.20;;;;;;;20.53;36.81;100580.81;5062846;28;20394;-61
2021/06/04 08:50:58;;;;;;;6.10;1.50;;;;;;;20.86;36.93;100570.44;5062930;28;20032;-58
2021/06/04 08:53:50;;;;;;;4.72;1.70;;;;;;;20.36;36.30;100518.47;5061354;28;20025;-61
2021/06/04 08:56:20;;;;;;;2.35;1.38;;;;;;;20.64;36.78;100511.88;5063529;28;20021;-59
2021/06/04 08:58:51;;;;;;;2.50;1.40;;;;;;;21.01;36.64;100553.00;5062350;28;20250;-60
2021/06/04 09:02:12;;;;;;;6.55;1.58;;;;;;;21.33;37.69;100554.91;5062787;28;20213;-61
2021/06/04 09:05:14;;;;;;;5.20;1.33;;;;;;;21.22;36.54;100497.53;5010810;28;20028;-59
2021/06/04 09:07:46;;;;;;;4.65;1.38;;;;;;;21.29;35.14;100548.97;5061933;28;20353;-60
2021/06/04 09:10:36;;;;;;;4.00;1.40;;;;;;;21.16;35.97;100551.38;5062447;28;20102;-59
2021/06/04 09:13:02;;;;;;;4.55;1.45;;;;;;;21.28;36.62;100554.31;5062609;28;20024;-61
2021/06/04 09:15:34;;;;;;;7.57;1.48;;;;;;;21.48;36.98;100546.19;5062645;28;20321;-61
2021/06/04 09:18:11;;;;;;;2.05;1.30;;;;;;;21.60;37.60;100549.16;5060806;28;20037;-58
2021/06/04 09:20:49;;;;;;;6.45;2.05;;;;;;;21.38;36.36;100542.34;5062569;28;20052;-58
2021/06/04 09:23:18;;;;;;;5.30;1.40;;;;;;;21.35;36.31;100548.63;5061484;28;20084;-58
2021/06/04 09:25:45;;;;;;;3.63;1.40;;;;;;;21.24;36.05;100536.97;5059921;28;20021;-58
2021/06/04 09:28:10;;;;;;;8.18;2.05;;;;;;;21.57;36.45;100522.94;5062410;28;20021;-59
2021/06/04 09:31:19;;;;;;;5.68;1.92;;;;;;;21.57;38.84;100517.69;5060737;28;20039;-58
2021/06/04 09:33:56;;;;;;;2.97;1.38;;;;;;;21.81;36.98;100516.34;5043538;28;20037;-58
2021/06/04 09:36:26;;;;;;;3.00;1.45;;;;;;;21.43;33.81;100469.16;5062938;28;20059;-59
2021/06/04 09:39:13;;;;;;;4.00;1.20;;;;;;;21.51;34.89;100468.75;5062461;28;20339;-59
2021/06/04 09:41:43;;;;;;;3.03;1.50;;;;;;;21.45;34.95;100517.38;5062512;28;20024;-58
2021/06/04 09:44:18;;;;;;;5.07;1.10;;;;;;;21.31;34.67;100510.19;5063272;28;20029;-58
2021/06/04 09:46:53;;;;;;;3.25;1.30;;;;;;;21.71;35.95;100500.16;5063191;28;20048;-58
2021/06/04 09:49:48;;;;;;;1.88;1.15;;;;;;;21.78;34.83;100481.38;5065065;28;20025;-58
2021/06/04 09:52:33;;;;;;;5.10;1.40;;;;;;;21.61;35.40;100487.59;5066330;28;20229;-56
2021/06/04 09:55:21;;;;;;;3.25;1.33;;;;;;;21.89;36.15;100490.41;5066710;28;20028;-59
2021/06/04 09:58:09;;;;;;;2.67;1.48;;;;;;;21.98;35.57;100486.38;5066758;28;20024;-59
2021/06/04 10:00:37;;;;;;;7.05;1.55;;;;;;;22.01;34.03;100475.66;5066175;28;20248;-59
2021/06/04 10:03:31;;;;;;;1.67;1.23;;;;;;;22.21;34.02;100471.03;5066597;28;20028;-58
2021/06/04 10:06:09;;;;;;;2.20;1.30;;;;;;;21.97;33.48;100476.75;5064892;28;20029;-58
2021/06/04 10:08:49;;;;;;;6.25;1.20;;;;;;;22.11;33.93;100454.03;5066012;28;20092;-58
2021/06/04 10:11:29;;;;;;;3.53;1.40;;;;;;;22.24;33.36;100473.50;5065104;28;20337;-58
2021/06/04 10:14:03;;;;;;;4.10;1.20;;;;;;;21.92;32.90;100464.75;5066286;28;20090;-58
2021/06/04 10:19:33;;;;;;;2.80;1.30;;;;;;;21.69;34.08;100459.00;5066043;28;20037;-58
2021/06/04 10:22:05;;;;;;;3.67;1.23;;;;;;;21.58;34.01;100451.69;5065930;28;20100;-59
2021/06/04 10:24:35;;;;;;;;;;;;;;;21.81;33.35;100449.56;5066334;28;20071;-60
2021/06/04 10:27:15;;;;;;;3.42;1.52;;;;;;;21.66;33.04;100432.78;5066093;28;19943;-58
2021/06/04 10:29:55;;;;;;;2.35;1.23;;;;;;;21.91;32.54;100461.28;5065601;28;20025;-57
2021/06/04 10:32:22;;;;;;;3.65;1.50;;;;;;;21.68;33.00;100449.41;5065671;28;20032;-58
2021/06/04 10:34:48;;;;;;;3.22;1.33;;;;;;;21.67;33.18;100440.63;5065855;28;20080;-58
2021/06/04 10:37:22;;;;;;;6.38;1.20;;;;;;;21.43;32.39;100390.06;5065990;28;20218;-58
2021/06/04 10:39:54;;;;;;;4.65;1.10;;;;;;;21.74;32.61;100443.78;5065843;28;20032;-59
2021/06/04 10:42:36;;;;;;;2.28;1.10;;;;;;;21.69;32.74;100390.44;5065510;28;20024;-57
2021/06/04 10:45:34;;;;;;;5.47;1.40;;;;;;;21.89;32.37;100447.34;5065770;28;20071;-59
2021/06/04 10:48:08;;;;;;;1.95;1.13;;;;;;;22.11;33.17;100425.84;5060824;28;20033;-58
2021/06/04 10:51:13;;;;;;;4.18;1.42;;;;;;;22.01;32.93;100403.59;5065532;28;20048;-58
2021/06/04 10:54:00;;;;;;;3.50;1.27;;;;;;;21.68;31.55;100388.75;5064780;28;20191;-60
2021/06/04 10:56:34;;;;;;;7.38;1.30;;;;;;;22.19;32.35;100425.41;5065495;28;20028;-59
2021/06/04 10:59:03;;;;;;;1.63;1.20;;;;;;;22.40;31.64;100423.31;5063637;28;20029;-60
2021/06/04 11:01:39;;;;;;;2.95;1.33;;;;;;;22.40;32.36;100426.84;5065424;28;20033;-59
2021/06/04 11:04:13;;;;;;;10.43;1.55;;;;;;;22.33;31.71;100380.63;5065256;28;20321;-59
2021/06/04 11:06:38;;;;;;;6.20;1.52;;;;;;;22.52;31.19;100421.78;5065257;28;20035;-60
2021/06/04 11:09:31;;;;;;;3.42;1.20;;;;;;;22.05;30.01;100408.59;5064947;28;20021;-60
2021/06/04 11:12:03;;;;;;;2.63;1.35;;;;;;;22.44;30.58;100416.09;5057414;28;20088;-58
2021/06/04 11:14:43;;;;;;;6.13;1.50;;;;;;;22.08;30.48;100368.00;5065172;28;20029;-59
2021/06/04 11:17:15;;;;;;;6.78;1.55;;;;;;;22.54;31.20;100409.31;5064818;28;20052;-59
2021/06/04 11:19:45;;;;;;;3.25;1.25;;;;;;;22.14;31.47;100372.91;5063800;28;20321;-58
2021/06/04 11:22:19;;;;;;;1.48;1.20;;;;;;;22.47;31.58;100408.81;5064777;28;20056;-59
2021/06/04 11:25:13;;;;;;;6.13;1.40;;;;;;;22.63;31.67;100392.06;5057725;28;20031;-59
2021/06/04 11:27:46;;;;;;;6.25;1.50;;;;;;;22.40;31.36;100411.00;5056788;28;20325;-60
2021/06/04 11:30:25;;;;;;;4.53;1.17;;;;;;;22.52;31.05;100401.50;5064356;28;20028;-57
2021/06/04 11:33:18;;;;;;;3.72;1.13;;;;;;;22.36;30.88;100400.69;5064844;28;20025;-59
2021/06/04 11:35:49;;;;;;;5.40;1.30;;;;;;;22.38;31.09;100414.66;5064625;28;20329;-59
2021/06/04 11:38:48;;;;;;;4.38;1.27;;;;;;;22.25;31.53;100359.09;5064500;28;20032;-59
2021/06/04 11:41:29;;;;;;;4.38;1.50;;;;;;;22.24;30.92;100411.00;5062371;28;20032;-59
2021/06/04 11:44:24;;;;;;;1.90;1.10;;;;;;;22.28;30.44;100403.75;5062639;28;20025;-59
2021/06/04 11:47:13;;;;;;;5.55;1.35;;;;;;;22.34;30.74;100407.88;5043695;28;20096;-59
2021/06/04 11:49:57;;;;;;;3.55;1.42;;;;;;;22.26;30.72;100404.78;5053400;28;20040;-59